Time;durP1;ratioP1;P1;durP2;ratioP2;P2;SDS_P1;SDS_P2;PMS_P1;PMS_P2;Temp;Humidity;BMP_temperature;BMP_pressure;BME280_temperature;BME280_humidity;BME280_pressure;Samples;Min_cycle;Max_cycle;Signal;HPM_P1;HPM_P2
2021/12/03 00:00:47;;;;;;;16.27;12.25;;;0.30;99.90;;;;;;5064739;28;20442;-65
2021/12/03 00:03:14;;;;;;;10.50;8.27;;;0.30;99.90;;;;;;5067007;28;20211;-65
2021/12/03 00:05:41;;;;;;;13.13;8.70;;;0.30;99.90;;;;;;5069412;28;20221;-65
2021/12/03 00:08:09;;;;;;;10.68;9.23;;;0.30;99.90;;;;;;5061315;28;20227;-65
2021/12/03 00:10:37;;;;;;;9.98;8.95;;;0.40;99.90;;;;;;5070238;28;20647;-64
2021/12/03 00:13:08;;;;;;;11.50;7.70;;;0.40;99.90;;;;;;5070070;28;20214;-67
2021/12/03 00:15:36;;;;;;;10.25;8.27;;;0.40;99.90;;;;;;5069775;28;20234;-66
2021/12/03 00:18:03;;;;;;;10.20;7.80;;;0.30;99.90;;;;;;5071145;28;20204;-67
2021/12/03 00:20:34;;;;;;;17.63;9.20;;;0.30;99.90;;;;;;5066325;28;20257;-66
2021/12/03 00:23:02;;;;;;;11.18;9.90;;;0.30;99.90;;;;;;5069712;28;20204;-67
2021/12/03 00:25:29;;;;;;;11.57;9.88;;;0.20;99.90;;;;;;5070604;28;20301;-67
2021/12/03 00:27:55;;;;;;;12.98;8.05;;;0.20;99.90;;;;;;5071214;28;20238;-65
2021/12/03 00:30:23;;;;;;;13.43;9.15;;;0.20;99.90;;;;;;5070052;28;20686;-68
2021/12/03 00:32:50;;;;;;;12.20;7.68;;;0.20;99.90;;;;;;5073233;28;20274;-64
2021/12/03 00:35:18;;;;;;;13.68;8.55;;;0.20;99.90;;;;;;5069748;28;20214;-65
2021/12/03 00:37:46;;;;;;;10.43;9.48;;;0.20;99.90;;;;;;5071573;28;20207;-65
2021/12/03 00:40:20;;;;;;;9.40;8.35;;;0.20;99.90;;;;;;5074524;28;20227;-65
2021/12/03 00:42:47;;;;;;;15.32;9.55;;;0.20;99.90;;;;;;5073908;28;20260;-65
2021/12/03 00:45:14;;;;;;;8.63;7.65;;;0.20;99.90;;;;;;5064357;28;20226;-65
2021/12/03 00:47:43;;;;;;;8.90;7.97;;;0.20;99.90;;;;;;5067887;28;20300;-65
2021/12/03 00:50:13;;;;;;;16.85;10.63;;;0.10;99.90;;;;;;5065507;28;20267;-65
2021/12/03 00:52:40;;;;;;;13.55;10.63;;;0.20;99.90;;;;;;5069737;28;20211;-65
2021/12/03 00:55:08;;;;;;;10.10;9.15;;;0.10;99.90;;;;;;5068537;28;20292;-66
2021/12/03 00:57:35;;;;;;;8.18;7.38;;;0.10;99.90;;;;;;5069533;28;20282;-66
2021/12/03 01:00:01;;;;;;;10.27;7.75;;;0.10;99.90;;;;;;5068383;28;20215;-66
2021/12/03 01:02:28;;;;;;;12.45;8.40;;;0.20;99.90;;;;;;5069772;28;20612;-65
2021/12/03 01:04:56;;;;;;;10.00;9.10;;;0.40;99.90;;;;;;5068853;28;20742;-66
2021/12/03 01:07:23;;;;;;;9.85;6.97;;;0.60;99.90;;;;;;5067695;28;20223;-66
2021/12/03 01:09:49;;;;;;;14.45;11.00;;;0.70;99.90;;;;;;5067241;28;20208;-64
2021/12/03 01:12:16;;;;;;;12.70;7.72;;;0.80;99.90;;;;;;5068962;28;20235;-64
2021/12/03 01:14:44;;;;;;;11.25;9.45;;;0.90;99.90;;;;;;5068143;28;20729;-65
2021/12/03 01:17:11;;;;;;;11.38;10.15;;;1.00;99.90;;;;;;5068003;28;20313;-64
2021/12/03 01:19:38;;;;;;;11.82;7.38;;;1.00;99.90;;;;;;5067511;28;20219;-65
2021/12/03 01:22:06;;;;;;;14.40;9.20;;;1.00;99.90;;;;;;5068226;28;20676;-65
2021/12/03 01:24:32;;;;;;;10.82;8.57;;;1.00;99.90;;;;;;5068732;28;20487;-65
2021/12/03 01:27:00;;;;;;;10.20;7.50;;;1.10;99.90;;;;;;5068526;28;20296;-66
2021/12/03 01:29:27;;;;;;;12.23;9.10;;;1.10;99.90;;;;;;5069004;28;20234;-65
2021/12/03 01:31:54;;;;;;;9.20;7.70;;;1.20;99.90;;;;;;5067994;28;20207;-64
2021/12/03 01:34:22;;;;;;;8.60;7.80;;;1.20;99.90;;;;;;5048588;28;20213;-63
2021/12/03 01:36:48;;;;;;;8.43;7.60;;;1.20;99.90;;;;;;5054937;28;20215;-65
2021/12/03 01:39:17;;;;;;;12.18;9.68;;;1.20;99.90;;;;;;5067119;28;20211;-64
2021/12/03 01:41:44;;;;;;;8.45;7.55;;;1.10;99.90;;;;;;5067872;28;20594;-65
2021/12/03 01:44:11;;;;;;;12.18;10.05;;;1.00;99.90;;;;;;5068520;28;20625;-65
2021/12/03 01:46:38;;;;;;;11.15;8.00;;;1.00;99.90;;;;;;5067261;28;20227;-66
2021/12/03 01:49:06;;;;;;;7.15;6.45;;;0.90;99.90;;;;;;5067640;28;20675;-65
2021/12/03 01:51:33;;;;;;;7.63;6.72;;;0.80;99.90;;;;;;5067307;28;20250;-65
2021/12/03 01:53:59;;;;;;;8.10;6.82;;;0.70;99.90;;;;;;5061422;28;20205;-65
2021/12/03 01:56:28;;;;;;;9.75;7.03;;;0.60;99.90;;;;;;5067970;28;20246;-64
2021/12/03 01:58:56;;;;;;;9.25;7.00;;;0.50;99.90;;;;;;5067162;28;20276;-65
2021/12/03 02:01:26;;;;;;;9.15;6.93;;;0.50;99.90;;;;;;5068134;28;20268;-65
2021/12/03 02:03:56;;;;;;;7.63;6.82;;;0.40;99.90;;;;;;5068689;28;20215;-65
2021/12/03 02:06:24;;;;;;;8.68;7.85;;;0.40;99.90;;;;;;5068727;28;20708;-65
2021/12/03 02:08:52;;;;;;;9.35;8.13;;;0.40;99.90;;;;;;5069169;28;20348;-65
2021/12/03 02:11:19;;;;;;;14.25;9.80;;;0.40;99.90;;;;;;5063199;28;20207;-65
2021/12/03 02:13:47;;;;;;;8.60;7.70;;;0.50;99.90;;;;;;5075958;28;20265;-66
2021/12/03 02:16:15;;;;;;;8.73;7.25;;;0.50;99.90;;;;;;5077780;28;20231;-63
2021/12/03 02:18:42;;;;;;;7.90;6.35;;;0.50;99.90;;;;;;5076980;28;20209;-64
2021/12/03 02:21:12;;;;;;;11.40;7.57;;;0.50;99.90;;;;;;5076804;28;20208;-64
2021/12/03 02:23:39;;;;;;;9.50;7.55;;;0.60;99.90;;;;;;5074809;28;20214;-65
2021/12/03 02:26:07;;;;;;;9.57;8.70;;;0.60;99.90;;;;;;5064289;28;20226;-64
2021/12/03 02:28:37;;;;;;;8.00;7.20;;;0.70;99.90;;;;;;5067148;28;20266;-65
2021/12/03 02:31:05;;;;;;;8.93;8.02;;;0.70;99.90;;;;;;5065836;28;20196;-65
2021/12/03 02:33:32;;;;;;;8.52;7.80;;;0.80;99.90;;;;;;5066877;28;20523;-65
2021/12/03 02:35:58;;;;;;;8.27;7.30;;;0.90;99.90;;;;;;5066975;28;20239;-64
2021/12/03 02:38:27;;;;;;;9.88;7.35;;;1.00;99.90;;;;;;5066683;28;20224;-65
2021/12/03 02:40:55;;;;;;;9.40;7.22;;;1.10;99.90;;;;;;5060016;28;20207;-65
2021/12/03 02:43:22;;;;;;;10.13;8.20;;;1.10;99.90;;;;;;5065788;28;20215;-66
2021/12/03 02:45:51;;;;;;;19.77;8.75;;;1.20;99.90;;;;;;5059678;28;20287;-64
2021/12/03 02:48:19;;;;;;;9.02;6.07;;;1.30;99.90;;;;;;5067182;28;20247;-65
2021/12/03 02:50:46;;;;;;;12.57;8.30;;;1.30;99.90;;;;;;5069628;28;20252;-65
2021/12/03 02:53:12;;;;;;;7.82;7.22;;;1.30;99.90;;;;;;5066640;28;20295;-65
2021/12/03 02:55:41;;;;;;;9.60;8.38;;;1.30;99.90;;;;;;5065689;28;20224;-64
2021/12/03 02:58:08;;;;;;;9.15;8.20;;;1.40;99.90;;;;;;5067470;28;20204;-64
2021/12/03 03:00:35;;;;;;;9.48;7.47;;;1.40;99.90;;;;;;5067146;28;20211;-65
2021/12/03 03:03:02;;;;;;;7.85;7.07;;;1.50;99.90;;;;;;5067900;28;20259;-65
2021/12/03 03:05:29;;;;;;;9.23;8.25;;;1.50;99.90;;;;;;5067423;28;20292;-65
2021/12/03 03:07:55;;;;;;;6.70;6.07;;;1.60;99.90;;;;;;5068141;28;20285;-65
2021/12/03 03:10:28;;;;;;;9.43;7.95;;;1.50;99.90;;;;;;5068655;28;20200;-65
2021/12/03 03:12:57;;;;;;;9.07;7.25;;;1.60;99.90;;;;;;5070379;28;20213;-65
2021/12/03 03:15:24;;;;;;;12.85;7.90;;;1.60;99.90;;;;;;5069324;28;20236;-64
2021/12/03 03:17:51;;;;;;;6.25;5.60;;;1.60;99.90;;;;;;5070772;28;20209;-65
2021/12/03 03:20:18;;;;;;;8.10;7.35;;;1.60;99.90;;;;;;5069673;28;20197;-65
2021/12/03 03:22:47;;;;;;;8.25;6.20;;;1.60;99.90;;;;;;5069092;28;20284;-65
2021/12/03 03:25:16;;;;;;;8.55;6.80;;;1.70;99.90;;;;;;5068690;28;20235;-65
2021/12/03 03:27:44;;;;;;;11.52;6.95;;;1.70;99.90;;;;;;5066566;28;20243;-65
2021/12/03 03:30:13;;;;;;;8.93;6.40;;;1.70;99.90;;;;;;5066114;28;20204;-65
2021/12/03 03:32:40;;;;;;;9.50;6.18;;;1.70;99.90;;;;;;5067058;28;20226;-65
2021/12/03 03:35:08;;;;;;;8.35;6.90;;;1.70;99.90;;;;;;5067006;28;20238;-65
2021/12/03 03:37:35;;;;;;;6.18;4.05;;;1.70;99.90;;;;;;5061611;28;20579;-65
2021/12/03 03:40:02;;;;;;;7.07;6.38;;;1.70;99.90;;;;;;5070349;28;20211;-65
2021/12/03 03:42:29;;;;;;;14.57;6.18;;;1.70;99.90;;;;;;5071194;28;20215;-65
2021/12/03 03:44:56;;;;;;;8.02;6.82;;;1.70;99.90;;;;;;5069958;28;20236;-65
2021/12/03 03:47:24;;;;;;;8.77;5.93;;;1.80;99.90;;;;;;5070670;28;20555;-64
2021/12/03 03:49:50;;;;;;;10.43;6.18;;;1.80;99.90;;;;;;5069745;28;20212;-65
2021/12/03 03:52:17;;;;;;;6.53;5.88;;;1.80;99.90;;;;;;5061486;28;20251;-65
2021/12/03 03:54:44;;;;;;;13.40;6.60;;;1.80;99.90;;;;;;5066886;28;20291;-65
2021/12/03 03:57:11;;;;;;;15.02;8.55;;;1.90;99.90;;;;;;5064508;28;20208;-65
2021/12/03 03:59:38;;;;;;;8.45;6.88;;;1.90;99.90;;;;;;5069813;28;20300;-64
2021/12/03 04:02:05;;;;;;;10.23;6.40;;;1.90;99.90;;;;;;5068521;28;20215;-65
2021/12/03 04:04:33;;;;;;;8.60;5.80;;;1.90;99.90;;;;;;5069939;28;20251;-65
2021/12/03 04:07:00;;;;;;;7.18;5.90;;;1.80;99.90;;;;;;5060702;28;20243;-65
2021/12/03 04:09:27;;;;;;;8.05;5.75;;;1.90;99.90;;;;;;5069369;28;20200;-65
2021/12/03 04:11:53;;;;;;;7.43;5.20;;;1.90;99.90;;;;;;5069593;28;20560;-64
2021/12/03 04:14:20;;;;;;;6.10;5.60;;;1.90;99.90;;;;;;5069599;28;20342;-65
2021/12/03 04:16:48;;;;;;;7.30;5.30;;;1.90;99.90;;;;;;5069787;28;20205;-64
2021/12/03 04:19:14;;;;;;;5.95;5.40;;;1.80;99.90;;;;;;5063779;28;20207;-65
2021/12/03 04:21:42;;;;;;;4.57;4.18;;;1.90;99.90;;;;;;5066745;28;20992;-65
2021/12/03 04:24:09;;;;;;;4.93;4.43;;;1.90;99.90;;;;;;5070009;28;20257;-65
2021/12/03 04:26:36;;;;;;;5.93;4.28;;;1.90;99.90;;;;;;5069455;28;20200;-65
2021/12/03 04:29:03;;;;;;;9.57;4.38;;;1.90;99.90;;;;;;5069726;28;20301;-65
2021/12/03 04:31:30;;;;;;;7.00;4.38;;;1.90;99.90;;;;;;5069354;28;20260;-65
2021/12/03 04:33:57;;;;;;;5.43;4.35;;;2.00;99.90;;;;;;5067985;28;20205;-64
2021/12/03 04:36:24;;;;;;;4.07;3.60;;;2.00;99.90;;;;;;5064755;28;20223;-65
2021/12/03 04:38:52;;;;;;;6.53;5.00;;;2.00;99.90;;;;;;5068335;28;20205;-66
2021/12/03 04:41:18;;;;;;;7.22;5.70;;;2.10;99.90;;;;;;5069672;28;20272;-66
2021/12/03 04:43:45;;;;;;;6.40;4.00;;;2.10;99.90;;;;;;5068453;28;20690;-64
2021/12/03 04:46:12;;;;;;;6.70;4.05;;;2.10;99.90;;;;;;5067082;28;20601;-64
2021/12/03 04:48:39;;;;;;;4.95;4.22;;;2.10;99.90;;;;;;5066913;28;20225;-64
2021/12/03 04:51:06;;;;;;;5.00;4.60;;;2.10;99.90;;;;;;5068903;28;20209;-63
2021/12/03 04:53:32;;;;;;;3.85;3.15;;;2.10;99.90;;;;;;5062504;28;20577;-65
2021/12/03 04:56:00;;;;;;;4.25;3.83;;;2.10;99.90;;;;;;5059223;28;20223;-64
2021/12/03 04:58:27;;;;;;;13.00;4.93;;;2.10;99.90;;;;;;5069169;28;20197;-64
2021/12/03 05:00:56;;;;;;;4.00;3.60;;;2.10;99.90;;;;;;5068008;28;20258;-64
2021/12/03 05:03:24;;;;;;;3.83;3.55;;;2.20;99.90;;;;;;5069361;28;20573;-64
2021/12/03 05:05:54;;;;;;;4.40;4.00;;;2.20;99.90;;;;;;5069289;28;20323;-64
2021/12/03 05:08:21;;;;;;;5.55;3.90;;;2.30;99.90;;;;;;5067464;28;20588;-64
2021/12/03 05:10:48;;;;;;;3.92;3.63;;;2.20;99.90;;;;;;5067231;28;20281;-64
2021/12/03 05:13:19;;;;;;;3.30;3.10;;;2.30;99.90;;;;;;5062937;28;20234;-64
2021/12/03 05:15:46;;;;;;;13.55;3.38;;;2.30;99.90;;;;;;5068971;28;21551;-65
2021/12/03 05:18:16;;;;;;;4.45;3.92;;;2.30;99.90;;;;;;5068997;28;20200;-67
2021/12/03 05:20:44;;;;;;;3.90;2.60;;;2.30;99.90;;;;;;5064348;28;20228;-66
2021/12/03 05:23:11;;;;;;;5.90;4.20;;;2.40;99.90;;;;;;5061395;28;20209;-66
2021/12/03 05:25:39;;;;;;;4.20;3.80;;;2.40;99.90;;;;;;5069513;28;20574;-64
2021/12/03 05:28:07;;;;;;;3.78;3.38;;;2.40;99.90;;;;;;5067881;28;21123;-64
2021/12/03 05:30:36;;;;;;;3.10;2.80;;;2.40;99.90;;;;;;5067249;28;20259;-64
2021/12/03 05:33:04;;;;;;;3.40;3.10;;;2.40;99.90;;;;;;5067371;28;20766;-65
2021/12/03 05:35:31;;;;;;;6.30;2.70;;;2.40;99.90;;;;;;5063429;28;20217;-64
2021/12/03 05:37:58;;;;;;;5.75;4.15;;;2.40;99.90;;;;;;5066223;28;20268;-65
2021/12/03 05:40:26;;;;;;;4.90;3.38;;;2.40;99.90;;;;;;5067298;28;20200;-64
2021/12/03 05:42:52;;;;;;;5.28;3.58;;;2.50;99.90;;;;;;5068625;28;20269;-64
2021/12/03 05:45:22;;;;;;;2.47;1.92;;;2.50;99.90;;;;;;5068295;28;20233;-67
2021/12/03 05:47:51;;;;;;;3.28;2.97;;;2.50;99.90;;;;;;5068366;28;20233;-67
2021/12/03 05:50:19;;;;;;;2.63;2.42;;;2.40;99.90;;;;;;5066746;28;20211;-64
2021/12/03 05:52:47;;;;;;;7.75;3.35;;;2.40;99.90;;;;;;5068666;28;20205;-64
2021/12/03 05:55:15;;;;;;;3.42;3.03;;;2.50;99.90;;;;;;5068826;28;20248;-65
2021/12/03 05:57:42;;;;;;;4.03;3.00;;;2.50;99.90;;;;;;5068423;28;20623;-65
2021/12/03 06:00:14;;;;;;;3.17;2.88;;;2.50;99.90;;;;;;5067869;28;20204;-64
2021/12/03 06:02:41;;;;;;;1.92;1.77;;;2.60;99.90;;;;;;5066321;28;20604;-65
2021/12/03 06:05:10;;;;;;;4.45;3.25;;;2.60;99.90;;;;;;5063870;28;20742;-65
2021/12/03 06:07:37;;;;;;;3.42;2.20;;;2.60;99.90;;;;;;5074662;28;20709;-65
2021/12/03 06:10:04;;;;;;;4.43;3.17;;;2.60;99.90;;;;;;5077626;28;20223;-65
2021/12/03 06:12:31;;;;;;;2.90;2.53;;;2.60;99.90;;;;;;5077753;28;20337;-65
2021/12/03 06:14:58;;;;;;;3.78;3.47;;;2.70;99.90;;;;;;5078762;28;20236;-65
2021/12/03 06:17:24;;;;;;;4.50;3.97;;;2.60;99.90;;;;;;5075166;28;20275;-65
2021/12/03 06:19:51;;;;;;;3.35;2.90;;;2.70;99.90;;;;;;5076575;28;20566;-64
2021/12/03 06:22:19;;;;;;;2.28;2.15;;;2.60;99.90;;;;;;5076388;28;20269;-64
2021/12/03 06:24:46;;;;;;;2.53;2.30;;;2.60;99.90;;;;;;5075971;28;20729;-64
2021/12/03 06:27:12;;;;;;;2.08;1.73;;;2.60;99.90;;;;;;5076639;28;20788;-65
2021/12/03 06:29:39;;;;;;;2.53;2.33;;;2.60;99.90;;;;;;5076943;28;20597;-65
2021/12/03 06:32:09;;;;;;;2.20;2.00;;;2.60;99.90;;;;;;5076737;28;20283;-65
2021/12/03 06:34:36;;;;;;;3.20;2.60;;;2.60;99.90;;;;;;5076549;28;20909;-65
2021/12/03 06:37:03;;;;;;;4.30;3.53;;;2.60;99.90;;;;;;5075726;28;20203;-65
2021/12/03 06:39:31;;;;;;;2.97;2.67;;;2.60;99.90;;;;;;5075458;28;20200;-65
2021/12/03 06:41:58;;;;;;;3.55;2.35;;;2.60;99.90;;;;;;5075372;28;20258;-64
2021/12/03 06:44:25;;;;;;;4.78;3.15;;;2.60;99.90;;;;;;5077001;28;20284;-66
2021/12/03 06:46:53;;;;;;;2.72;2.53;;;2.60;99.90;;;;;;5075418;28;20212;-67
2021/12/03 06:49:20;;;;;;;6.20;4.05;;;2.60;99.90;;;;;;5079403;28;20280;-64
2021/12/03 06:51:49;;;;;;;2.67;1.95;;;2.60;99.90;;;;;;5079502;28;20208;-67
2021/12/03 06:54:24;;;;;;;2.92;2.70;;;2.60;99.90;;;;;;5076668;28;20287;-65
2021/12/03 06:56:52;;;;;;;4.93;2.25;;;2.60;99.90;;;;;;5075281;28;20205;-64
2021/12/03 06:59:20;;;;;;;3.22;2.80;;;2.60;99.90;;;;;;5074428;28;20211;-64
2021/12/03 07:01:47;;;;;;;8.00;3.67;;;2.60;99.90;;;;;;5075588;28;20253;-67
2021/12/03 07:04:14;;;;;;;2.95;2.65;;;2.60;99.90;;;;;;5075163;28;20223;-65
2021/12/03 07:06:40;;;;;;;6.93;2.60;;;2.60;99.90;;;;;;5074323;28;20269;-65
2021/12/03 07:09:08;;;;;;;1.85;1.75;;;2.70;99.90;;;;;;5075481;28;20232;-64
2021/12/03 07:11:35;;;;;;;4.25;2.90;;;2.70;99.90;;;;;;5074802;28;20212;-65
2021/12/03 07:14:03;;;;;;;4.07;2.75;;;2.60;99.90;;;;;;5074292;28;20311;-67
2021/12/03 07:16:30;;;;;;;4.80;2.45;;;2.60;99.90;;;;;;5074217;28;20655;-64
2021/12/03 07:18:57;;;;;;;1.85;1.55;;;2.60;99.90;;;;;;5076826;28;20670;-64
2021/12/03 07:21:25;;;;;;;4.10;2.97;;;2.50;99.90;;;;;;5075733;28;20732;-65
2021/12/03 07:23:54;;;;;;;3.50;2.00;;;2.50;99.90;;;;;;5083950;28;20265;-66
2021/12/03 07:26:22;;;;;;;3.83;3.40;;;2.50;99.90;;;;;;5079943;28;20448;-65
2021/12/03 07:28:49;;;;;;;4.75;3.90;;;2.40;99.90;;;;;;5078574;28;20599;-66
2021/12/03 07:31:17;;;;;;;4.22;2.53;;;2.40;99.90;;;;;;5082539;28;20628;-65
2021/12/03 07:33:45;;;;;;;7.63;3.33;;;2.50;99.90;;;;;;5081455;28;20220;-65
2021/12/03 07:36:11;;;;;;;5.65;2.05;;;2.40;99.90;;;;;;5076306;28;20302;-64
2021/12/03 07:38:38;;;;;;;7.68;2.70;;;2.50;99.90;;;;;;5076019;28;20262;-65
2021/12/03 07:41:05;;;;;;;1.95;1.85;;;2.50;99.90;;;;;;5076800;28;20702;-66
2021/12/03 07:43:32;;;;;;;3.50;3.20;;;2.50;99.90;;;;;;5073838;28;20208;-63
2021/12/03 07:46:00;;;;;;;1.90;1.80;;;2.50;99.90;;;;;;5075388;28;20224;-65
2021/12/03 07:48:28;;;;;;;2.47;2.15;;;2.50;99.90;;;;;;5073573;28;20207;-63
2021/12/03 07:50:56;;;;;;;2.85;2.65;;;2.50;99.90;;;;;;5075649;28;20229;-66
2021/12/03 07:53:23;;;;;;;4.30;2.80;;;2.60;99.90;;;;;;5075312;28;20214;-65
2021/12/03 07:55:52;;;;;;;3.90;3.08;;;2.60;99.90;;;;;;5079593;28;20720;-65
2021/12/03 07:58:20;;;;;;;4.13;2.90;;;2.70;99.90;;;;;;5080290;28;20205;-66
2021/12/03 08:00:48;;;;;;;5.25;2.70;;;2.70;99.90;;;;;;5078337;28;20200;-67
2021/12/03 08:03:14;;;;;;;1.88;1.77;;;2.70;99.90;;;;;;5081361;28;20209;-64
2021/12/03 08:05:42;;;;;;;3.10;1.90;;;2.80;99.90;;;;;;5077587;28;20236;-65
2021/12/03 08:08:09;;;;;;;2.42;2.05;;;2.80;99.90;;;;;;5073050;28;20231;-65
2021/12/03 08:10:36;;;;;;;2.50;2.40;;;2.80;99.90;;;;;;5072725;28;20249;-64
2021/12/03 08:13:03;;;;;;;3.10;2.28;;;2.90;99.90;;;;;;5071938;28;20201;-66
2021/12/03 08:15:30;;;;;;;3.88;1.73;;;2.90;99.90;;;;;;5074143;28;20232;-65
2021/12/03 08:17:57;;;;;;;2.10;2.00;;;2.90;99.90;;;;;;5074723;28;20373;-65
2021/12/03 08:20:23;;;;;;;1.67;1.58;;;3.00;99.90;;;;;;5075688;28;20652;-64
2021/12/03 08:22:51;;;;;;;1.10;1.00;;;3.00;99.90;;;;;;5075831;28;20211;-67
2021/12/03 08:25:18;;;;;;;1.40;1.30;;;3.00;99.90;;;;;;5073808;28;20278;-65
2021/12/03 08:27:45;;;;;;;3.55;2.40;;;3.10;99.90;;;;;;5079501;28;20215;-65
2021/12/03 08:30:13;;;;;;;1.45;1.35;;;3.10;99.90;;;;;;5077697;28;20690;-65
2021/12/03 08:32:41;;;;;;;6.25;2.40;;;3.10;99.90;;;;;;5079208;28;20209;-65
2021/12/03 08:35:08;;;;;;;1.75;1.65;;;3.20;99.90;;;;;;5077655;28;20217;-64
2021/12/03 08:37:35;;;;;;;1.83;1.40;;;3.20;99.90;;;;;;5079576;28;20209;-65
2021/12/03 08:40:04;;;;;;;5.30;2.30;;;3.20;99.90;;;;;;5079263;28;20334;-65
2021/12/03 08:42:30;;;;;;;2.28;1.52;;;3.30;99.90;;;;;;5079315;28;20265;-65
2021/12/03 08:44:59;;;;;;;1.98;1.38;;;3.30;99.90;;;;;;5083589;28;20293;-64
2021/12/03 08:47:26;;;;;;;2.50;1.95;;;3.30;99.90;;;;;;5083112;28;20635;-67
2021/12/03 08:49:54;;;;;;;1.88;1.52;;;3.30;99.90;;;;;;5084137;28;20231;-68
2021/12/03 08:52:30;;;;;;;8.32;1.75;;;3.30;99.90;;;;;;5082579;28;20246;-66
2021/12/03 08:54:57;;;;;;;2.30;1.20;;;3.40;99.90;;;;;;5081311;28;20224;-65
2021/12/03 08:57:29;;;;;;;3.65;2.55;;;3.40;99.90;;;;;;5082450;28;20727;-65
2021/12/03 09:00:01;;;;;;;1.35;1.25;;;3.40;99.90;;;;;;5077685;28;20205;-64
2021/12/03 09:02:28;;;;;;;2.78;1.50;;;3.50;99.90;;;;;;5078404;28;20205;-65
2021/12/03 09:04:55;;;;;;;2.10;2.00;;;3.60;99.90;;;;;;5077178;28;20221;-64
2021/12/03 09:07:21;;;;;;;2.08;1.88;;;3.60;99.90;;;;;;5077605;28;20288;-65
2021/12/03 09:09:48;;;;;;;1.80;1.70;;;3.70;99.90;;;;;;5075698;28;20267;-64
2021/12/03 09:12:15;;;;;;;2.25;1.70;;;3.70;99.90;;;;;;5076906;28;20517;-65
2021/12/03 09:14:45;;;;;;;1.60;1.50;;;3.80;99.90;;;;;;5076872;28;20238;-67
2021/12/03 09:17:27;;;;;;;2.83;1.20;;;3.80;99.90;;;;;;5073753;28;20201;-64
2021/12/03 09:19:58;;;;;;;1.20;1.10;;;3.90;99.90;;;;;;5077614;28;20204;-64
2021/12/03 09:22:33;;;;;;;1.67;1.02;;;3.90;99.90;;;;;;5075954;28;20218;-63
2021/12/03 09:25:01;;;;;;;1.95;1.23;;;4.00;99.90;;;;;;5077055;28;20224;-64
2021/12/03 09:27:27;;;;;;;2.03;1.63;;;4.10;99.90;;;;;;5076340;28;20552;-65
2021/12/03 09:29:57;;;;;;;1.45;1.35;;;4.10;99.90;;;;;;5077225;28;20300;-65
2021/12/03 09:32:27;;;;;;;1.65;0.95;;;4.20;99.90;;;;;;5078472;28;20211;-65
2021/12/03 09:34:53;;;;;;;1.55;0.90;;;4.20;99.90;;;;;;5077127;28;20232;-64
2021/12/03 09:37:20;;;;;;;1.70;0.75;;;4.20;99.90;;;;;;5077298;28;20233;-64
2021/12/03 09:39:47;;;;;;;0.70;0.65;;;4.30;99.90;;;;;;5077780;28;20208;-64
2021/12/03 09:42:17;;;;;;;3.63;1.92;;;4.20;99.90;;;;;;5077452;28;20708;-64
2021/12/03 09:44:45;;;;;;;1.48;0.90;;;4.20;99.90;;;;;;5077938;28;20216;-65
2021/12/03 09:47:14;;;;;;;2.67;1.30;;;4.30;99.90;;;;;;5077550;28;20208;-65
2021/12/03 09:49:42;;;;;;;2.08;1.00;;;4.30;99.90;;;;;;5076911;28;20690;-65
2021/12/03 09:52:15;;;;;;;3.00;1.45;;;4.40;99.90;;;;;;5078081;28;20296;-65
2021/12/03 09:54:44;;;;;;;4.13;1.40;;;4.40;99.90;;;;;;5075621;28;20678;-66
2021/12/03 09:57:14;;;;;;;1.35;1.25;;;4.50;99.90;;;;;;5071223;28;20657;-66
2021/12/03 10:00:07;;;;;;;1.77;1.20;;;4.50;99.90;;;;;;5078600;28;20308;-63
2021/12/03 10:02:57;;;;;;;3.55;1.63;;;4.50;99.90;;;;;;5072485;28;20220;-64
2021/12/03 10:13:37;;;;;;;2.85;1.10;;;4.70;99.90;;;;;;5068670;28;20861;-63
2021/12/03 10:16:12;;;;;;;1.15;1.08;;;4.60;99.90;;;;;;5071095;28;20241;-64
2021/12/03 10:18:47;;;;;;;1.63;0.90;;;4.60;99.90;;;;;;5073847;28;20212;-64
2021/12/03 10:30:21;;;;;;;3.53;1.13;;;4.50;99.90;;;;;;5042783;28;20223;-65
2021/12/03 10:33:05;;;;;;;1.20;1.13;;;4.50;99.90;;;;;;5019027;28;20217;-66
2021/12/03 10:38:32;;;;;;;0.82;0.80;;;4.60;99.90;;;;;;5026472;28;20358;-66
2021/12/03 10:41:17;;;;;;;4.13;1.30;;;4.60;99.90;;;;;;5023157;27;20240;-63
2021/12/03 10:44:10;;;;;;;4.43;1.33;;;4.60;99.90;;;;;;5012024;28;20226;-66
2021/12/03 10:49:47;;;;;;;3.25;1.40;;;4.70;99.90;;;;;;5037549;28;20204;-65
2021/12/03 11:11:55;;;;;;;5.57;1.67;;;4.80;99.90;;;;;;5012837;28;20269;-68
2021/12/03 11:31:23;;;;;;;0.90;0.90;;;4.80;99.90;;;;;;5017956;28;20224;-65
2021/12/03 11:39:38;;;;;;;1.80;1.58;;;4.90;99.90;;;;;;5015344;28;20205;-69
2021/12/03 11:45:43;;;;;;;3.85;1.60;;;4.90;99.90;;;;;;5036528;28;20713;-69
2021/12/03 13:09:58;;;;;;;3.80;1.10;;;5.10;99.90;;;;;;5020733;28;20207;-69
2021/12/03 13:24:29;;;;;;;8.43;2.70;;;5.20;99.90;;;;;;5026918;28;20727;-70
2021/12/03 14:09:40;;;;;;;0.98;0.85;;;5.00;99.90;;;;;;5117040;28;20903;-70
2021/12/03 14:40:15;;;;;;;0.80;0.65;;;4.90;99.90;;;;;;5109353;27;20248;-71
2021/12/03 14:42:59;;;;;;;1.00;0.93;;;4.80;99.90;;;;;;5113579;28;20205;-70
2021/12/03 14:45:54;;;;;;;2.58;1.73;;;4.80;99.90;;;;;;5117295;28;20215;-69
2021/12/03 14:48:33;;;;;;;1.65;1.35;;;4.80;99.90;;;;;;5108568;28;20701;-69
2021/12/03 14:54:25;;;;;;;1.15;1.10;;;4.80;99.90;;;;;;5105621;28;20314;-70
2021/12/03 14:57:13;;;;;;;1.25;0.70;;;4.80;99.90;;;;;;5106429;28;20206;-69
2021/12/03 15:00:00;;;;;;;1.50;1.40;;;4.90;99.90;;;;;;5105588;28;20201;-70
2021/12/03 15:02:40;;;;;;;2.75;0.82;;;4.90;99.90;;;;;;5107911;28;20273;-68
2021/12/03 15:05:28;;;;;;;0.93;0.63;;;4.90;99.90;;;;;;5095156;28;20222;-69
2021/12/03 15:07:55;;;;;;;2.63;1.50;;;4.80;99.90;;;;;;5106892;28;20192;-68
2021/12/03 15:10:32;;;;;;;0.90;0.90;;;4.80;99.90;;;;;;5097642;28;20207;-70
2021/12/03 15:18:50;;;;;;;0.80;0.73;;;4.80;99.90;;;;;;5105123;28;20284;-70
2021/12/03 15:21:37;;;;;;;1.50;1.38;;;4.80;99.90;;;;;;5097286;28;20227;-71
2021/12/03 15:27:04;;;;;;;2.10;1.50;;;4.80;99.90;;;;;;5099689;28;20202;-70
2021/12/03 15:30:05;;;;;;;1.48;0.73;;;4.70;99.90;;;;;;5103852;28;20732;-69
2021/12/03 15:32:39;;;;;;;1.15;0.85;;;4.70;99.90;;;;;;5107526;28;20210;-69
2021/12/03 15:35:11;;;;;;;0.60;0.60;;;4.60;99.90;;;;;;5101638;28;20258;-69
2021/12/03 15:40:39;;;;;;;0.40;0.40;;;4.40;99.90;;;;;;5107483;28;20278;-70
2021/12/03 15:54:41;;;;;;;0.77;0.75;;;3.90;99.90;;;;;;5103964;28;20230;-72
2021/12/03 15:57:17;;;;;;;0.50;0.50;;;3.80;99.90;;;;;;5103642;28;20657;-71
2021/12/03 16:05:31;;;;;;;1.20;1.08;;;3.60;99.90;;;;;;5103777;28;20718;-70
2021/12/03 16:08:05;;;;;;;0.93;0.82;;;3.60;99.90;;;;;;5109628;28;20212;-69
2021/12/03 16:10:39;;;;;;;1.85;1.30;;;3.50;99.90;;;;;;5091482;28;20288;-69
2021/12/03 16:13:12;;;;;;;1.00;1.00;;;3.50;99.90;;;;;;5082171;28;20234;-68
2021/12/03 16:16:17;;;;;;;1.63;1.05;;;3.50;99.90;;;;;;5075270;28;20231;-71
2021/12/03 16:46:29;;;;;;;0.75;0.75;;;3.80;99.90;;;;;;5014622;28;20371;-69
2021/12/03 16:51:47;;;;;;;1.67;1.58;;;3.90;99.90;;;;;;5069651;28;20252;-69
2021/12/03 16:54:19;;;;;;;3.40;1.65;;;3.90;99.90;;;;;;5069747;28;20225;-71
2021/12/03 16:56:49;;;;;;;1.27;1.17;;;4.00;99.90;;;;;;5085400;28;20214;-70
2021/12/03 16:59:15;;;;;;;2.67;2.05;;;4.00;99.90;;;;;;5078347;28;20217;-70
2021/12/03 17:01:46;;;;;;;0.90;0.90;;;4.10;99.90;;;;;;5069673;28;20205;-69
2021/12/03 17:04:29;;;;;;;1.80;1.70;;;4.10;99.90;;;;;;5069955;28;20689;-70
2021/12/03 17:07:29;;;;;;;0.90;0.90;;;4.20;99.90;;;;;;5069624;28;20702;-69
2021/12/03 17:12:53;;;;;;;1.15;1.02;;;4.30;99.90;;;;;;5078156;28;20370;-70
2021/12/03 17:29:49;;;;;;;0.80;0.70;;;4.40;99.90;;;;;;5071582;28;20239;-69
2021/12/03 17:46:27;;;;;;;2.22;2.10;;;4.40;99.90;;;;;;5029715;28;20244;-69
2021/12/03 17:49:01;;;;;;;1.20;1.10;;;4.40;99.90;;;;;;5048758;28;20630;-67
2021/12/03 17:57:08;;;;;;;1.58;1.48;;;4.30;99.90;;;;;;5037711;28;20277;-69
2021/12/03 17:59:40;;;;;;;1.00;0.90;;;4.30;99.90;;;;;;5044630;28;20222;-68
2021/12/03 18:02:14;;;;;;;0.85;0.85;;;4.30;99.90;;;;;;5042943;28;20210;-67
2021/12/03 18:04:55;;;;;;;1.95;0.85;;;4.30;99.90;;;;;;5043515;28;20226;-69
2021/12/03 18:07:30;;;;;;;0.82;0.73;;;4.30;99.90;;;;;;5043641;28;20317;-68
2021/12/03 18:43:30;;;;;;;1.23;1.05;;;4.10;99.90;;;;;;5026342;28;20660;-70
2021/12/03 18:46:16;;;;;;;2.50;2.25;;;4.20;99.90;;;;;;5035720;28;20394;-69
2021/12/03 18:51:45;;;;;;;2.17;1.08;;;4.30;99.90;;;;;;5028656;28;20220;-67
2021/12/03 18:57:07;;;;;;;1.90;1.10;;;4.30;99.90;;;;;;5048069;28;20246;-69
2021/12/03 18:59:37;;;;;;;5.13;1.90;;;4.30;99.90;;;;;;5032813;28;20666;-68
2021/12/03 19:02:07;;;;;;;1.02;0.93;;;4.30;99.90;;;;;;5047753;28;20605;-69
2021/12/03 19:04:44;;;;;;;1.23;1.15;;;4.40;99.90;;;;;;5041695;28;20232;-67
2021/12/03 19:07:14;;;;;;;2.10;1.40;;;4.40;99.90;;;;;;5034976;28;20204;-69
2021/12/03 19:09:44;;;;;;;2.15;1.95;;;4.40;99.90;;;;;;5054484;28;20255;-69
2021/12/03 19:12:14;;;;;;;2.05;1.20;;;4.40;99.90;;;;;;5044934;28;20212;-67
2021/12/03 19:14:48;;;;;;;1.27;1.00;;;4.50;99.90;;;;;;5045780;28;20237;-69
2021/12/03 19:17:14;;;;;;;1.05;0.90;;;4.50;99.90;;;;;;5046832;28;20643;-68
2021/12/03 19:19:44;;;;;;;3.83;1.83;;;4.50;99.90;;;;;;5032939;28;20209;-69